createdAt,value
2018-09-09T00:00:18.256Z,99.90
2018-09-09T00:02:46.312Z,99.90
2018-09-09T00:05:14.441Z,99.90
2018-09-09T00:07:42.503Z,99.90
2018-09-09T00:10:10.566Z,99.90
2018-09-09T00:12:38.621Z,99.90
2018-09-09T00:15:06.665Z,99.90
2018-09-09T00:17:34.719Z,99.90
2018-09-09T00:20:02.914Z,99.90
2018-09-09T00:22:30.953Z,99.90
2018-09-09T00:24:58.991Z,99.90
2018-09-09T00:27:27.050Z,99.90
2018-09-09T00:29:55.090Z,99.90
2018-09-09T00:32:23.243Z,99.90
2018-09-09T00:34:51.437Z,99.90
2018-09-09T00:37:19.532Z,99.90
2018-09-09T00:39:47.588Z,99.90
2018-09-09T00:42:15.748Z,99.90
2018-09-09T00:44:43.842Z,99.90
2018-09-09T00:47:11.883Z,99.90
2018-09-09T00:49:45.705Z,99.90
2018-09-09T00:52:19.193Z,99.90
2018-09-09T00:54:47.549Z,99.90
2018-09-09T00:57:15.598Z,99.90
2018-09-09T00:59:43.721Z,99.90
2018-09-09T01:02:11.774Z,99.90
2018-09-09T01:04:39.837Z,99.90
2018-09-09T01:07:07.984Z,99.90
2018-09-09T01:09:36.107Z,99.90
2018-09-09T01:12:04.659Z,99.90
2018-09-09T01:14:33.493Z,99.90
2018-09-09T01:17:01.555Z,99.90
2018-09-09T01:19:29.609Z,99.90
2018-09-09T01:21:57.714Z,99.90
2018-09-09T01:24:25.775Z,99.90
2018-09-09T01:26:54.189Z,99.90
2018-09-09T01:29:22.534Z,99.90
2018-09-09T01:31:50.604Z,99.90
2018-09-09T01:34:18.773Z,99.90
2018-09-09T01:36:46.840Z,99.90
2018-09-09T01:39:14.947Z,99.90
2018-09-09T01:41:42.994Z,99.90
2018-09-09T01:44:11.165Z,99.90
2018-09-09T01:46:39.273Z,99.90
2018-09-09T01:49:07.419Z,99.90
2018-09-09T01:51:35.498Z,99.90
2018-09-09T01:54:03.529Z,99.90
2018-09-09T01:56:31.591Z,99.90
2018-09-09T01:58:59.669Z,99.90
2018-09-09T02:01:27.737Z,99.90
2018-09-09T02:03:55.891Z,99.90
2018-09-09T02:06:23.922Z,99.90
2018-09-09T02:08:51.984Z,99.90
2018-09-09T02:11:20.033Z,99.90
2018-09-09T02:13:48.077Z,99.90
2018-09-09T02:16:16.140Z,99.90
2018-09-09T02:18:44.195Z,99.90
2018-09-09T02:21:12.269Z,99.90
2018-09-09T02:23:40.372Z,99.90
2018-09-09T02:26:08.433Z,99.90
2018-09-09T02:28:36.481Z,99.90
2018-09-09T02:31:04.535Z,99.90
2018-09-09T02:33:32.609Z,99.90
2018-09-09T02:36:00.692Z,99.90
2018-09-09T02:38:28.726Z,99.90
2018-09-09T02:40:56.873Z,99.90
2018-09-09T02:43:24.937Z,99.90
2018-09-09T02:45:52.992Z,99.90
2018-09-09T02:48:21.149Z,99.90
2018-09-09T02:50:49.200Z,99.90
2018-09-09T02:53:17.313Z,99.90
2018-09-09T02:55:45.724Z,99.90
2018-09-09T02:58:15.305Z,99.90
2018-09-09T03:00:43.472Z,99.90
2018-09-09T03:03:11.498Z,99.90
2018-09-09T03:05:39.951Z,99.90
2018-09-09T03:08:08.336Z,99.90
2018-09-09T03:10:36.506Z,99.90
2018-09-09T03:13:04.681Z,99.90
2018-09-09T03:15:32.769Z,99.90
2018-09-09T03:18:00.809Z,99.90
2018-09-09T03:20:28.907Z,99.90
2018-09-09T03:22:56.967Z,99.90
2018-09-09T03:25:25.034Z,99.90
2018-09-09T03:27:53.083Z,99.90
2018-09-09T03:30:21.149Z,99.90
2018-09-09T03:32:49.204Z,99.90
2018-09-09T03:35:17.281Z,99.90
2018-09-09T03:37:45.380Z,99.90
2018-09-09T03:40:13.448Z,99.90
2018-09-09T03:42:41.526Z,99.90
2018-09-09T03:45:09.594Z,99.90
2018-09-09T03:47:37.665Z,99.90
2018-09-09T03:50:05.751Z,99.90
2018-09-09T03:52:33.831Z,99.90
2018-09-09T03:55:01.877Z,99.90
2018-09-09T03:57:29.987Z,99.90
2018-09-09T03:59:58.006Z,99.90
2018-09-09T04:02:26.062Z,99.90
2018-09-09T04:04:54.482Z,99.90
2018-09-09T04:07:22.553Z,99.90
2018-09-09T04:09:50.590Z,99.90
2018-09-09T04:12:18.760Z,99.90
2018-09-09T04:14:46.949Z,99.90
2018-09-09T04:17:15.065Z,99.90
2018-09-09T04:19:43.118Z,99.90
2018-09-09T04:22:11.170Z,99.90
2018-09-09T04:24:39.232Z,99.90
2018-09-09T04:27:07.285Z,99.90
2018-09-09T04:29:35.348Z,99.90
2018-09-09T04:32:03.405Z,99.90
2018-09-09T04:34:32.318Z,99.90
2018-09-09T04:37:00.497Z,99.90
2018-09-09T04:39:28.553Z,99.90
2018-09-09T04:41:56.643Z,99.90
2018-09-09T04:44:24.677Z,99.90
2018-09-09T04:46:52.740Z,99.90
2018-09-09T04:49:20.873Z,99.90
2018-09-09T04:51:49.033Z,99.90
2018-09-09T04:54:17.101Z,99.90
2018-09-09T04:56:45.181Z,99.90
2018-09-09T04:59:13.221Z,99.90
2018-09-09T05:01:41.322Z,99.90
2018-09-09T05:04:09.369Z,99.90
2018-09-09T05:06:37.489Z,99.90
2018-09-09T05:09:06.225Z,99.90
2018-09-09T05:11:34.324Z,99.90
2018-09-09T05:14:02.460Z,99.90
2018-09-09T05:16:30.488Z,99.90
2018-09-09T05:18:58.536Z,99.90
2018-09-09T05:21:26.619Z,99.90
2018-09-09T05:23:54.752Z,99.90
2018-09-09T05:26:22.817Z,99.90
2018-09-09T05:28:50.933Z,99.90
2018-09-09T05:31:18.989Z,99.90
2018-09-09T05:33:47.123Z,99.90
2018-09-09T05:36:15.175Z,99.90
2018-09-09T05:38:43.241Z,99.90
2018-09-09T05:41:11.291Z,99.90
2018-09-09T05:43:39.409Z,99.90
2018-09-09T05:46:07.490Z,99.90
2018-09-09T05:48:35.585Z,99.90
2018-09-09T05:51:03.617Z,99.90
2018-09-09T05:53:31.725Z,99.90
2018-09-09T05:55:59.776Z,99.90
2018-09-09T05:58:27.865Z,99.90
2018-09-09T06:00:55.909Z,99.90
2018-09-09T06:03:24.040Z,99.90
2018-09-09T06:05:52.087Z,99.90
2018-09-09T06:08:20.162Z,99.90
2018-09-09T06:10:54.289Z,99.90
2018-09-09T06:13:23.593Z,99.90
2018-09-09T06:15:52.864Z,99.90
2018-09-09T06:18:21.459Z,99.90
2018-09-09T06:20:49.658Z,99.90
2018-09-09T06:23:17.749Z,99.90
2018-09-09T06:25:45.973Z,99.90
2018-09-09T06:28:14.260Z,99.90
2018-09-09T06:30:42.301Z,99.90
2018-09-09T06:33:10.357Z,99.90
2018-09-09T06:35:38.507Z,99.90
2018-09-09T06:38:06.653Z,99.90
2018-09-09T06:40:34.730Z,99.90
2018-09-09T06:43:02.802Z,99.90
2018-09-09T06:45:30.913Z,99.90
2018-09-09T06:47:58.971Z,99.90
2018-09-09T06:50:27.132Z,99.90
2018-09-09T06:52:55.248Z,99.90
2018-09-09T06:55:23.538Z,99.90
2018-09-09T06:57:51.553Z,99.90
2018-09-09T07:00:19.746Z,99.90
2018-09-09T07:02:47.778Z,99.90
2018-09-09T07:05:15.820Z,99.90
2018-09-09T07:07:43.951Z,99.90
2018-09-09T07:10:12.047Z,99.90
2018-09-09T07:12:40.091Z,99.90
2018-09-09T07:15:08.470Z,99.90
2018-09-09T07:17:36.498Z,99.90
2018-09-09T07:20:04.723Z,99.90
2018-09-09T07:22:32.819Z,99.90
2018-09-09T07:25:01.724Z,99.90
2018-09-09T07:27:29.890Z,99.90
2018-09-09T07:29:58.000Z,99.90
2018-09-09T07:32:26.048Z,99.90
2018-09-09T07:34:54.745Z,99.90
2018-09-09T07:37:22.827Z,99.90
2018-09-09T07:39:50.889Z,99.90
2018-09-09T07:42:18.931Z,99.90
2018-09-09T07:44:47.033Z,99.90
2018-09-09T07:47:15.077Z,99.90
2018-09-09T07:49:43.114Z,99.90
2018-09-09T07:52:11.165Z,99.90
2018-09-09T07:54:39.333Z,99.90
2018-09-09T07:57:07.349Z,99.90
2018-09-09T07:59:35.452Z,99.90
2018-09-09T08:02:03.509Z,99.90
2018-09-09T08:04:31.590Z,99.90
2018-09-09T08:06:59.765Z,99.90
2018-09-09T08:09:27.855Z,99.90
2018-09-09T08:11:55.940Z,99.90
2018-09-09T08:14:23.976Z,99.90
2018-09-09T08:16:52.060Z,99.90
2018-09-09T08:19:20.214Z,99.90
2018-09-09T08:21:48.248Z,99.90
2018-09-09T08:24:16.630Z,99.90
2018-09-09T08:26:44.717Z,99.90
2018-09-09T08:29:12.953Z,99.90
2018-09-09T08:31:40.987Z,99.90
2018-09-09T08:34:09.137Z,99.90
2018-09-09T08:36:37.195Z,99.90
2018-09-09T08:39:06.986Z,99.90
2018-09-09T08:41:35.105Z,99.90
2018-09-09T08:44:03.165Z,99.90
2018-09-09T08:46:31.217Z,99.90
2018-09-09T08:48:59.322Z,99.90
2018-09-09T08:51:27.398Z,99.90
2018-09-09T08:53:55.471Z,99.90
2018-09-09T08:56:23.519Z,99.60
2018-09-09T08:58:51.561Z,99.20
2018-09-09T09:01:19.701Z,99.70
2018-09-09T09:03:47.750Z,99.30
2018-09-09T09:06:15.793Z,98.70
2018-09-09T09:08:43.869Z,97.60
2018-09-09T09:11:12.069Z,97.20
2018-09-09T09:13:40.101Z,96.60
2018-09-09T09:16:08.212Z,97.10
2018-09-09T09:18:36.281Z,97.00
2018-09-09T09:21:04.354Z,96.40
2018-09-09T09:23:32.422Z,95.10
2018-09-09T09:26:00.598Z,94.40
2018-09-09T09:28:28.665Z,93.60
2018-09-09T09:30:56.749Z,92.70
2018-09-09T09:33:24.814Z,92.60
2018-09-09T09:35:53.828Z,92.10
2018-09-09T09:38:22.687Z,92.20
2018-09-09T09:40:51.576Z,91.50
2018-09-09T09:43:19.674Z,88.50
2018-09-09T09:45:47.732Z,89.30
2018-09-09T09:48:15.765Z,86.80
2018-09-09T09:50:43.826Z,84.30
2018-09-09T09:53:11.859Z,82.50
2018-09-09T09:55:39.952Z,80.90
2018-09-09T09:58:08.012Z,79.90
2018-09-09T10:00:41.676Z,80.20
2018-09-09T10:03:09.773Z,78.60
2018-09-09T10:05:37.855Z,81.10
2018-09-09T10:08:06.054Z,80.90
2018-09-09T10:10:34.113Z,79.40
2018-09-09T10:13:02.154Z,77.40
2018-09-09T10:15:30.372Z,77.50
2018-09-09T10:17:58.434Z,77.90
2018-09-09T10:20:26.520Z,74.70
2018-09-09T10:22:54.545Z,75.50
2018-09-09T10:25:22.678Z,72.90
2018-09-09T10:27:50.740Z,70.50
2018-09-09T10:30:18.798Z,70.60
2018-09-09T10:32:46.886Z,69.00
2018-09-09T10:35:15.156Z,68.20
2018-09-09T10:37:43.193Z,68.00
2018-09-09T10:40:11.317Z,67.50
2018-09-09T10:42:39.346Z,66.30
2018-09-09T10:45:07.397Z,66.10
2018-09-09T10:47:36.246Z,63.00
2018-09-09T10:50:04.433Z,58.90
2018-09-09T10:52:32.514Z,59.10
2018-09-09T10:55:00.561Z,59.70
2018-09-09T10:57:28.764Z,58.50
2018-09-09T10:59:56.825Z,59.00
2018-09-09T11:02:24.897Z,58.40
2018-09-09T11:04:52.995Z,59.20
2018-09-09T11:07:21.068Z,57.80
2018-09-09T11:09:49.172Z,57.10
2018-09-09T11:12:17.252Z,56.90
2018-09-09T11:14:45.292Z,55.40
2018-09-09T11:17:13.365Z,56.10
2018-09-09T11:19:41.441Z,56.40
2018-09-09T11:22:09.554Z,55.70
2018-09-09T11:24:37.715Z,54.40
2018-09-09T11:27:05.697Z,54.70
2018-09-09T11:29:33.760Z,53.80
2018-09-09T11:32:01.862Z,52.80
2018-09-09T11:34:29.915Z,52.60
2018-09-09T11:36:57.990Z,53.00
2018-09-09T11:39:26.167Z,52.90
2018-09-09T11:41:54.242Z,53.40
2018-09-09T11:44:22.317Z,53.70
2018-09-09T11:46:50.405Z,53.20
2018-09-09T11:49:18.452Z,54.00
2018-09-09T11:51:46.595Z,54.60
2018-09-09T11:54:14.665Z,53.80
2018-09-09T11:56:42.754Z,50.80
2018-09-09T11:59:10.840Z,51.00
2018-09-09T12:01:38.898Z,50.40
2018-09-09T12:04:06.939Z,49.80
2018-09-09T12:06:35.034Z,49.70
2018-09-09T12:09:04.308Z,49.90
2018-09-09T12:11:32.379Z,49.10
2018-09-09T12:14:00.484Z,49.90
2018-09-09T12:16:28.570Z,49.20
2018-09-09T12:18:56.615Z,50.40
2018-09-09T12:21:24.667Z,48.80
2018-09-09T12:23:52.716Z,48.80
2018-09-09T12:26:20.841Z,48.50
2018-09-09T12:28:48.887Z,49.00
2018-09-09T12:31:16.991Z,49.60
2018-09-09T12:33:45.249Z,48.80
2018-09-09T12:36:13.313Z,49.20
2018-09-09T12:38:41.449Z,50.00
2018-09-09T12:41:09.535Z,51.00
2018-09-09T12:43:43.096Z,49.50
2018-09-09T12:46:16.669Z,49.30
2018-09-09T12:48:50.237Z,47.80
2018-09-09T12:51:18.304Z,48.30
2018-09-09T12:53:46.439Z,47.20
2018-09-09T12:56:14.626Z,46.90
2018-09-09T12:58:42.695Z,47.60
2018-09-09T13:01:10.742Z,45.50
2018-09-09T13:03:38.818Z,45.10
2018-09-09T13:06:06.858Z,45.40
2018-09-09T13:08:34.901Z,44.70
2018-09-09T13:11:03.042Z,44.40
2018-09-09T13:13:31.101Z,44.90
2018-09-09T13:15:59.156Z,44.10
2018-09-09T13:18:27.219Z,45.20
2018-09-09T13:20:55.269Z,44.20
2018-09-09T13:23:23.398Z,43.90
2018-09-09T13:25:51.481Z,44.20
2018-09-09T13:28:19.537Z,43.80
2018-09-09T13:30:47.633Z,40.70
2018-09-09T13:33:15.692Z,39.70
2018-09-09T13:35:43.726Z,36.20
2018-09-09T13:38:11.775Z,32.10
2018-09-09T13:40:39.808Z,32.00
2018-09-09T13:43:07.871Z,29.70
2018-09-09T13:45:35.975Z,28.60
2018-09-09T13:48:04.072Z,28.30
2018-09-09T13:50:32.085Z,27.00
2018-09-09T13:53:00.165Z,26.70
2018-09-09T13:55:28.233Z,26.50
2018-09-09T13:57:56.469Z,26.10
2018-09-09T14:00:24.503Z,26.30
2018-09-09T14:02:52.662Z,25.50
2018-09-09T14:05:20.694Z,25.60
2018-09-09T14:07:48.855Z,25.10
2018-09-09T14:10:16.985Z,25.90
2018-09-09T14:12:45.258Z,25.30
2018-09-09T14:15:13.349Z,25.70
2018-09-09T14:17:41.335Z,25.10
2018-09-09T14:20:09.430Z,25.00
2018-09-09T14:22:37.577Z,25.10
2018-09-09T14:25:05.704Z,25.50
2018-09-09T14:27:33.789Z,25.50
2018-09-09T14:30:01.862Z,25.70
2018-09-09T14:32:29.902Z,25.30
2018-09-09T14:34:58.009Z,24.80
2018-09-09T14:37:26.053Z,24.90
2018-09-09T14:39:54.097Z,25.90
2018-09-09T14:42:22.128Z,26.40
2018-09-09T14:44:50.273Z,26.90
2018-09-09T14:47:18.369Z,25.90
2018-09-09T14:49:46.570Z,24.90
2018-09-09T14:52:14.611Z,25.60
2018-09-09T14:54:42.688Z,25.40
2018-09-09T14:57:10.772Z,25.30
2018-09-09T14:59:38.837Z,25.80
2018-09-09T15:02:06.905Z,25.80
2018-09-09T15:04:35.011Z,25.50
2018-09-09T15:07:03.055Z,25.30
2018-09-09T15:09:31.112Z,25.00
2018-09-09T15:11:59.149Z,25.60
2018-09-09T15:14:27.199Z,25.60
2018-09-09T15:16:55.354Z,25.60
2018-09-09T15:19:23.405Z,25.80
2018-09-09T15:21:51.777Z,26.10
2018-09-09T15:24:19.881Z,25.60
2018-09-09T15:26:47.973Z,25.70
2018-09-09T15:29:16.117Z,25.40
2018-09-09T15:31:44.218Z,25.50
2018-09-09T15:34:12.243Z,25.30
2018-09-09T15:36:40.317Z,24.70
2018-09-09T15:39:09.015Z,25.00
2018-09-09T15:41:37.085Z,25.40
2018-09-09T15:44:05.537Z,25.70
2018-09-09T15:46:34.165Z,25.90
2018-09-09T15:49:02.328Z,26.00
2018-09-09T15:51:30.369Z,26.00
2018-09-09T15:53:58.453Z,25.90
2018-09-09T15:56:26.533Z,26.20
2018-09-09T15:58:54.581Z,26.50
2018-09-09T16:01:22.680Z,26.50
2018-09-09T16:03:50.741Z,26.80
2018-09-09T16:06:18.846Z,26.30
2018-09-09T16:08:46.899Z,26.40
2018-09-09T16:11:14.938Z,26.40
2018-09-09T16:13:43.062Z,26.90
2018-09-09T16:16:11.209Z,27.10
2018-09-09T16:18:39.268Z,26.80
2018-09-09T16:21:07.360Z,26.90
2018-09-09T16:23:35.424Z,27.20
2018-09-09T16:26:03.517Z,27.20
2018-09-09T16:28:31.694Z,27.30
2018-09-09T16:30:59.753Z,26.90
2018-09-09T16:33:27.948Z,26.90
2018-09-09T16:35:56.069Z,27.00
2018-09-09T16:38:24.273Z,26.60
2018-09-09T16:40:52.400Z,26.60
2018-09-09T16:43:21.622Z,26.90
2018-09-09T16:45:50.049Z,26.90
2018-09-09T16:48:18.146Z,27.30
2018-09-09T16:50:46.293Z,26.90
2018-09-09T16:53:14.335Z,27.30
2018-09-09T16:55:42.393Z,27.10
2018-09-09T16:58:10.428Z,27.30
2018-09-09T17:00:38.600Z,27.70
2018-09-09T17:03:06.970Z,27.90
2018-09-09T17:05:35.041Z,28.10
2018-09-09T17:08:03.101Z,28.50
2018-09-09T17:10:31.174Z,29.10
2018-09-09T17:12:59.208Z,29.70
2018-09-09T17:15:27.337Z,30.00
2018-09-09T17:17:55.381Z,30.90
2018-09-09T17:20:23.466Z,31.50
2018-09-09T17:22:51.509Z,32.40
2018-09-09T17:25:19.636Z,33.20
2018-09-09T17:27:47.910Z,34.20
2018-09-09T17:30:16.055Z,35.60
2018-09-09T17:32:44.125Z,36.50
2018-09-09T17:35:12.232Z,37.00
2018-09-09T17:37:40.294Z,37.80
2018-09-09T17:40:08.506Z,38.60
2018-09-09T17:42:36.866Z,39.30
2018-09-09T17:45:05.386Z,40.00
2018-09-09T17:47:33.462Z,40.50
2018-09-09T17:50:01.630Z,41.40
2018-09-09T17:52:29.742Z,41.30
2018-09-09T17:54:57.816Z,41.60
2018-09-09T17:57:25.878Z,42.10
2018-09-09T17:59:53.954Z,42.70
2018-09-09T18:02:22.042Z,43.00
2018-09-09T18:04:50.209Z,43.20
2018-09-09T18:07:18.366Z,44.00
2018-09-09T18:09:46.486Z,44.10
2018-09-09T18:12:14.532Z,44.70
2018-09-09T18:14:42.660Z,44.70
2018-09-09T18:17:11.117Z,45.10
2018-09-09T18:19:39.675Z,45.40
2018-09-09T18:22:07.748Z,46.00
2018-09-09T18:24:35.813Z,46.50
2018-09-09T18:27:03.917Z,46.80
2018-09-09T18:29:32.103Z,47.20
2018-09-09T18:32:00.094Z,46.70
2018-09-09T18:34:28.280Z,47.90
2018-09-09T18:36:56.721Z,47.70
2018-09-09T18:39:24.843Z,48.10
2018-09-09T18:41:52.957Z,49.80
2018-09-09T18:44:21.065Z,50.20
2018-09-09T18:46:49.138Z,50.00
2018-09-09T18:49:17.503Z,50.00
2018-09-09T18:51:45.609Z,50.40
2018-09-09T18:54:13.710Z,50.90
2018-09-09T18:56:41.836Z,50.90
2018-09-09T18:59:09.974Z,52.40
2018-09-09T19:01:38.061Z,53.80
2018-09-09T19:04:06.127Z,52.70
2018-09-09T19:06:34.270Z,55.00
2018-09-09T19:09:02.323Z,54.20
2018-09-09T19:11:30.565Z,54.30
2018-09-09T19:13:58.643Z,54.90
2018-09-09T19:16:26.746Z,55.60
2018-09-09T19:18:54.807Z,56.60
2018-09-09T19:21:22.986Z,56.40
2018-09-09T19:23:51.364Z,56.70
2018-09-09T19:26:19.466Z,57.80
2018-09-09T19:28:47.562Z,59.40
2018-09-09T19:31:15.617Z,61.70
2018-09-09T19:33:43.661Z,63.20
2018-09-09T19:36:11.897Z,65.40
2018-09-09T19:38:39.961Z,62.90
2018-09-09T19:41:08.057Z,64.90
2018-09-09T19:43:36.289Z,67.30
2018-09-09T19:46:04.400Z,71.30
2018-09-09T19:48:32.854Z,74.00
2018-09-09T19:51:01.411Z,76.70
2018-09-09T19:53:29.628Z,77.90
2018-09-09T19:55:57.729Z,80.40
2018-09-09T19:58:26.235Z,81.00
2018-09-09T20:00:54.247Z,79.70
2018-09-09T20:03:22.377Z,80.10
2018-09-09T20:05:53.028Z,81.20
2018-09-09T20:08:21.469Z,81.50
2018-09-09T20:10:49.506Z,82.80
2018-09-09T20:13:17.600Z,84.40
2018-09-09T20:15:45.751Z,85.80
2018-09-09T20:18:13.870Z,86.50
2018-09-09T20:20:41.933Z,87.20
2018-09-09T20:23:09.989Z,87.70
2018-09-09T20:25:38.050Z,89.00
2018-09-09T20:28:06.111Z,89.20
2018-09-09T20:30:34.240Z,89.50
2018-09-09T20:33:02.298Z,89.60
2018-09-09T20:35:30.411Z,90.60
2018-09-09T20:37:58.453Z,91.50
2018-09-09T20:40:26.538Z,92.70
2018-09-09T20:42:54.601Z,93.80
2018-09-09T20:45:28.205Z,94.60
2018-09-09T20:47:57.618Z,93.60
2018-09-09T20:50:25.829Z,94.10
2018-09-09T20:52:53.936Z,94.20
2018-09-09T20:55:22.181Z,94.70
2018-09-09T20:57:50.289Z,94.30
2018-09-09T21:00:18.400Z,94.60
2018-09-09T21:02:47.904Z,95.40
2018-09-09T21:05:15.956Z,96.50
2018-09-09T21:07:44.058Z,97.40
2018-09-09T21:10:12.143Z,98.10
2018-09-09T21:12:40.218Z,97.60
2018-09-09T21:15:08.321Z,98.70
2018-09-09T21:17:37.078Z,98.80
2018-09-09T21:20:05.164Z,99.40
2018-09-09T21:22:33.345Z,98.70
2018-09-09T21:25:01.835Z,99.10
2018-09-09T21:27:29.879Z,99.90
2018-09-09T21:30:00.539Z,99.90
2018-09-09T21:32:28.625Z,99.90
2018-09-09T21:34:56.805Z,99.90
2018-09-09T21:37:24.865Z,99.90
2018-09-09T21:39:52.930Z,99.90
2018-09-09T21:42:21.059Z,99.90
2018-09-09T21:44:49.247Z,99.90
2018-09-09T21:47:17.288Z,99.90
2018-09-09T21:49:45.381Z,99.90
2018-09-09T21:52:13.509Z,99.90
2018-09-09T21:54:41.734Z,99.90
2018-09-09T21:57:09.890Z,99.90
2018-09-09T21:59:37.934Z,99.90
2018-09-09T22:02:06.785Z,99.90
2018-09-09T22:04:35.207Z,99.90
2018-09-09T22:07:03.572Z,99.90
2018-09-09T22:09:31.628Z,99.90
2018-09-09T22:11:59.678Z,99.90
2018-09-09T22:14:27.800Z,99.90
2018-09-09T22:16:55.878Z,99.90
2018-09-09T22:19:23.934Z,99.90
2018-09-09T22:21:52.372Z,99.90
2018-09-09T22:24:21.348Z,99.90
2018-09-09T22:26:49.434Z,99.90
2018-09-09T22:29:17.761Z,99.90
2018-09-09T22:31:45.867Z,99.90
2018-09-09T22:34:14.145Z,99.90
2018-09-09T22:36:42.404Z,99.90
2018-09-09T22:39:11.430Z,99.90
2018-09-09T22:41:40.020Z,99.90
2018-09-09T22:44:09.914Z,99.90
2018-09-09T22:46:38.057Z,99.90
2018-09-09T22:49:06.162Z,99.90
2018-09-09T22:51:34.201Z,99.90
2018-09-09T22:54:02.643Z,99.90
2018-09-09T22:56:30.757Z,99.90
2018-09-09T22:58:59.029Z,99.90
2018-09-09T23:01:27.093Z,99.90
2018-09-09T23:03:55.149Z,99.90
2018-09-09T23:06:23.213Z,99.90
2018-09-09T23:08:51.276Z,99.90
2018-09-09T23:11:19.500Z,99.90
2018-09-09T23:13:47.574Z,99.90
2018-09-09T23:16:15.639Z,99.90
2018-09-09T23:18:43.698Z,99.90
2018-09-09T23:21:11.789Z,99.90
2018-09-09T23:23:39.829Z,99.90
2018-09-09T23:26:07.929Z,99.90
2018-09-09T23:28:35.993Z,99.90
2018-09-09T23:31:04.052Z,99.90
2018-09-09T23:33:32.110Z,99.90
2018-09-09T23:36:00.215Z,99.90
2018-09-09T23:38:28.245Z,99.90
2018-09-09T23:40:56.503Z,99.90
2018-09-09T23:43:24.642Z,99.90
2018-09-09T23:45:52.705Z,99.90
2018-09-09T23:48:20.776Z,99.90
2018-09-09T23:50:48.859Z,99.90
2018-09-09T23:53:16.885Z,99.90
2018-09-09T23:55:45.105Z,99.90
2018-09-09T23:58:13.132Z,99.90
